Time;durP1;ratioP1;P1;durP2;ratioP2;P2;SDS_P1;SDS_P2;PMS_P1;PMS_P2;Temp;Humidity;BMP_temperature;BMP_pressure;BME280_temperature;BME280_humidity;BME280_pressure;Samples;Min_cycle;Max_cycle;Signal;HPM_P1;HPM_P2
2022/06/26 00:02:12;;;;;;;6.97;4.25;;;23.20;77.60;;;;;;5028884;28;20218;-73
2022/06/26 00:04:40;;;;;;;4.35;3.50;;;23.20;77.70;;;;;;5022996;28;20215;-73
2022/06/26 00:07:07;;;;;;;5.85;4.25;;;23.20;77.60;;;;;;5030141;28;20225;-73
2022/06/26 00:09:33;;;;;;;6.72;5.15;;;23.20;77.40;;;;;;5029400;28;20302;-73
2022/06/26 00:12:00;;;;;;;4.47;2.90;;;23.20;77.50;;;;;;5019878;28;20211;-72
2022/06/26 00:14:27;;;;;;;4.95;4.05;;;23.30;77.50;;;;;;5019102;28;20219;-73
2022/06/26 00:16:54;;;;;;;6.43;3.97;;;23.20;76.90;;;;;;5022708;28;20652;-73
2022/06/26 00:19:21;;;;;;;5.10;3.92;;;23.20;76.70;;;;;;5033861;28;20214;-72
2022/06/26 00:21:50;;;;;;;6.07;4.60;;;23.20;76.80;;;;;;5032174;28;20577;-73
2022/06/26 00:24:18;;;;;;;3.95;3.63;;;23.20;77.10;;;;;;5031779;28;20209;-72
2022/06/26 00:26:44;;;;;;;4.63;4.15;;;23.10;77.00;;;;;;5027164;28;20218;-72
2022/06/26 00:29:11;;;;;;;7.55;3.60;;;23.20;77.00;;;;;;5026445;28;20624;-73
2022/06/26 00:31:38;;;;;;;4.95;3.67;;;23.20;76.90;;;;;;5021686;28;20230;-73
2022/06/26 00:34:05;;;;;;;4.70;4.18;;;23.10;77.00;;;;;;5023945;28;20203;-73
2022/06/26 00:36:32;;;;;;;4.78;4.22;;;23.10;77.00;;;;;;5021872;28;20206;-73
2022/06/26 00:39:00;;;;;;;12.82;7.35;;;23.10;76.90;;;;;;5027482;28;20222;-73
2022/06/26 00:41:27;;;;;;;5.45;4.15;;;23.10;77.00;;;;;;5022252;28;20381;-73
2022/06/26 00:43:53;;;;;;;5.93;3.53;;;23.10;77.10;;;;;;5018466;28;20203;-73
2022/06/26 00:46:24;;;;;;;6.45;4.03;;;23.10;77.10;;;;;;5016678;28;20691;-72
2022/06/26 00:48:51;;;;;;;4.40;4.00;;;23.10;77.90;;;;;;5018703;28;20215;-72
2022/06/26 00:51:19;;;;;;;6.35;5.10;;;23.10;77.30;;;;;;5024802;28;20341;-72
2022/06/26 00:53:45;;;;;;;5.43;4.68;;;23.10;77.00;;;;;;5024536;28;20202;-72
2022/06/26 00:56:14;;;;;;;6.65;4.68;;;23.00;77.00;;;;;;5026969;28;20240;-73
2022/06/26 00:58:41;;;;;;;7.40;4.03;;;23.00;76.90;;;;;;5030801;28;20574;-72
2022/06/26 01:01:08;;;;;;;4.15;3.58;;;23.00;76.80;;;;;;5023754;28;20271;-73
2022/06/26 01:03:34;;;;;;;4.70;3.92;;;23.00;76.60;;;;;;5020584;28;20219;-73
2022/06/26 01:06:01;;;;;;;6.18;3.75;;;22.90;76.40;;;;;;5019766;28;20250;-72
2022/06/26 01:08:28;;;;;;;4.57;3.83;;;23.00;76.20;;;;;;5029139;28;20214;-72
2022/06/26 01:10:55;;;;;;;7.00;4.20;;;22.90;76.20;;;;;;5033168;28;20571;-72
2022/06/26 01:13:23;;;;;;;6.75;4.53;;;23.00;76.30;;;;;;5018895;28;20668;-72
2022/06/26 01:15:50;;;;;;;5.30;3.63;;;22.90;76.30;;;;;;5020392;28;20250;-72
2022/06/26 01:18:18;;;;;;;3.95;3.55;;;22.90;76.40;;;;;;5026651;28;20266;-72
2022/06/26 01:20:53;;;;;;;8.25;4.72;;;22.90;76.50;;;;;;5030193;28;20205;-73
2022/06/26 01:23:22;;;;;;;8.25;5.30;;;22.90;76.50;;;;;;5027987;28;20210;-73
2022/06/26 01:25:49;;;;;;;5.22;3.92;;;22.90;76.70;;;;;;5020771;28;20219;-71
2022/06/26 01:28:17;;;;;;;6.10;3.63;;;22.80;76.80;;;;;;5022789;28;20226;-72
2022/06/26 01:30:44;;;;;;;7.15;4.18;;;22.80;76.80;;;;;;5016424;28;20233;-72
2022/06/26 01:33:11;;;;;;;4.68;3.83;;;22.80;77.10;;;;;;5013425;28;20218;-72
2022/06/26 01:35:38;;;;;;;4.43;4.03;;;22.80;77.30;;;;;;5014223;28;20206;-73
2022/06/26 01:38:10;;;;;;;5.70;4.22;;;22.70;77.20;;;;;;5018438;28;20215;-72
2022/06/26 01:40:38;;;;;;;5.57;4.28;;;22.70;77.40;;;;;;5020212;28;20243;-72
2022/06/26 01:43:05;;;;;;;4.95;3.60;;;22.60;77.70;;;;;;5018451;28;20226;-72
2022/06/26 01:45:32;;;;;;;6.07;4.70;;;22.60;77.70;;;;;;5012993;28;20226;-72
2022/06/26 01:47:59;;;;;;;6.35;4.13;;;22.60;77.70;;;;;;5027950;28;20287;-72
2022/06/26 01:50:26;;;;;;;10.05;4.30;;;22.60;77.70;;;;;;5015612;28;20690;-72
2022/06/26 01:52:53;;;;;;;6.25;5.13;;;22.60;77.70;;;;;;5025393;28;20290;-72
2022/06/26 01:55:20;;;;;;;4.85;4.30;;;22.50;77.60;;;;;;5020826;28;20206;-72
2022/06/26 01:57:48;;;;;;;6.65;3.95;;;22.50;78.00;;;;;;5024079;28;20659;-72
2022/06/26 02:00:15;;;;;;;5.55;4.70;;;22.50;78.90;;;;;;5012977;28;20208;-73
2022/06/26 02:02:42;;;;;;;4.68;4.18;;;22.50;77.90;;;;;;5015810;28;20203;-72
2022/06/26 02:05:09;;;;;;;8.60;6.65;;;22.40;77.90;;;;;;5021985;28;20214;-72
2022/06/26 02:07:36;;;;;;;9.02;6.60;;;22.40;78.00;;;;;;5025954;28;20559;-72
2022/06/26 02:15:33;;;;;;;5.35;4.68;;;22.30;78.50;;;;;;5018575;28;20194;-73
2022/06/26 02:18:00;;;;;;;7.10;5.18;;;22.30;78.80;;;;;;5021739;28;20203;-72
2022/06/26 02:20:27;;;;;;;5.18;4.68;;;22.20;78.80;;;;;;5028132;28;20206;-73
2022/06/26 02:22:53;;;;;;;5.72;4.68;;;22.20;78.90;;;;;;5024077;28;20211;-72
2022/06/26 02:25:20;;;;;;;6.47;5.03;;;22.20;79.10;;;;;;5014197;28;20204;-72
2022/06/26 02:27:49;;;;;;;8.68;4.85;;;22.20;79.20;;;;;;5019502;28;20203;-72
2022/06/26 02:30:15;;;;;;;6.82;4.88;;;22.10;79.10;;;;;;5023544;28;20251;-73
2022/06/26 02:32:42;;;;;;;5.80;4.03;;;22.10;78.90;;;;;;5029201;28;20230;-73
2022/06/26 02:35:10;;;;;;;4.78;4.03;;;22.10;78.90;;;;;;5018227;28;20217;-73
2022/06/26 02:37:36;;;;;;;6.15;4.45;;;22.10;79.10;;;;;;5012156;28;20231;-72
2022/06/26 02:40:04;;;;;;;5.55;4.45;;;22.10;79.20;;;;;;5015454;28;20230;-72
2022/06/26 02:42:31;;;;;;;5.82;4.88;;;22.10;79.10;;;;;;5014694;28;20207;-72
2022/06/26 02:44:59;;;;;;;4.90;4.20;;;22.10;79.20;;;;;;5024246;28;20215;-71
2022/06/26 02:47:26;;;;;;;5.40;4.47;;;22.10;79.30;;;;;;5014346;28;20667;-72
2022/06/26 02:49:53;;;;;;;5.68;4.18;;;22.10;79.30;;;;;;5014310;28;20203;-72
2022/06/26 02:52:19;;;;;;;6.05;4.47;;;22.10;79.40;;;;;;5015401;28;20215;-72
2022/06/26 02:54:49;;;;;;;6.25;4.50;;;22.10;79.60;;;;;;5021554;28;20214;-71
2022/06/26 02:57:15;;;;;;;5.80;3.95;;;22.10;79.60;;;;;;5027672;28;20654;-72
2022/06/26 02:59:42;;;;;;;5.25;4.15;;;22.10;79.70;;;;;;5028633;28;20214;-72
2022/06/26 03:02:10;;;;;;;5.78;4.90;;;22.10;79.70;;;;;;5016149;28;20211;-73
2022/06/26 03:04:37;;;;;;;4.57;4.18;;;22.20;79.90;;;;;;5017252;28;20211;-72
2022/06/26 03:07:04;;;;;;;5.97;4.07;;;22.20;79.60;;;;;;5024549;28;20694;-72
2022/06/26 03:09:31;;;;;;;8.05;5.82;;;22.30;79.70;;;;;;5030018;28;20210;-72
2022/06/26 03:11:58;;;;;;;4.53;4.10;;;22.30;79.50;;;;;;5012810;28;20207;-73
2022/06/26 03:14:25;;;;;;;10.93;6.13;;;22.30;79.80;;;;;;5015181;28;20217;-74
2022/06/26 03:16:51;;;;;;;6.57;5.88;;;22.30;79.60;;;;;;5017817;28;20239;-72
2022/06/26 03:19:20;;;;;;;9.35;6.00;;;22.40;79.70;;;;;;5021452;28;20206;-72
2022/06/26 03:21:47;;;;;;;7.82;5.47;;;22.50;79.80;;;;;;5021546;28;20203;-72
2022/06/26 03:24:13;;;;;;;4.65;4.25;;;22.50;80.00;;;;;;5013203;28;20218;-72
2022/06/26 03:26:40;;;;;;;4.07;3.78;;;22.50;80.10;;;;;;5011215;28;20222;-72
2022/06/26 03:29:12;;;;;;;5.93;5.07;;;22.60;80.30;;;;;;5018464;28;20222;-72
2022/06/26 03:31:39;;;;;;;4.63;4.22;;;22.60;80.30;;;;;;5020985;28;20214;-71
2022/06/26 03:34:06;;;;;;;12.57;8.55;;;22.70;80.20;;;;;;5012176;28;20226;-72
2022/06/26 03:36:35;;;;;;;6.13;5.32;;;22.70;80.00;;;;;;5011861;28;20628;-72
2022/06/26 03:39:02;;;;;;;6.47;4.75;;;22.70;79.90;;;;;;5019651;28;20210;-72
2022/06/26 03:41:29;;;;;;;7.22;4.60;;;22.70;80.00;;;;;;5017316;28;20213;-72
2022/06/26 03:43:56;;;;;;;8.07;5.97;;;22.70;80.00;;;;;;5020876;28;20235;-73
2022/06/26 03:46:23;;;;;;;13.55;7.50;;;22.70;80.10;;;;;;5026856;28;20214;-72
2022/06/26 03:48:50;;;;;;;9.68;6.80;;;22.70;80.10;;;;;;5031041;28;20671;-72
2022/06/26 03:51:16;;;;;;;7.93;5.47;;;22.70;80.30;;;;;;5016608;28;20214;-72
2022/06/26 03:53:45;;;;;;;10.15;6.18;;;22.70;80.30;;;;;;5027843;28;20203;-72
2022/06/26 03:56:12;;;;;;;13.20;7.50;;;22.80;80.40;;;;;;5025966;28;20645;-72
2022/06/26 03:58:38;;;;;;;11.02;7.10;;;22.80;80.20;;;;;;5011820;28;20215;-73
2022/06/26 04:01:05;;;;;;;11.93;8.40;;;22.80;80.20;;;;;;5015057;28;20212;-72
2022/06/26 04:03:32;;;;;;;8.25;4.78;;;22.80;80.20;;;;;;5019397;28;20207;-73
2022/06/26 04:05:59;;;;;;;5.82;4.63;;;22.90;80.40;;;;;;5018672;28;20478;-73
2022/06/26 04:08:26;;;;;;;6.28;4.15;;;22.90;80.40;;;;;;5018894;28;20249;-73
2022/06/26 04:10:54;;;;;;;5.88;5.18;;;22.90;79.90;;;;;;5030254;28;20207;-73
2022/06/26 04:13:20;;;;;;;16.80;9.07;;;23.00;79.80;;;;;;5017007;28;20208;-72
2022/06/26 04:15:47;;;;;;;9.60;7.80;;;23.00;79.70;;;;;;5018410;28;20245;-72
2022/06/26 04:18:14;;;;;;;9.10;6.78;;;23.00;79.50;;;;;;5018879;28;20214;-73
2022/06/26 04:20:41;;;;;;;6.55;4.38;;;23.10;79.60;;;;;;5023721;28;20208;-73
2022/06/26 04:23:10;;;;;;;10.15;7.15;;;23.10;79.40;;;;;;5016166;28;20208;-72
2022/06/26 04:25:39;;;;;;;8.45;5.30;;;23.10;79.20;;;;;;5032123;28;20206;-72
2022/06/26 04:28:08;;;;;;;7.35;5.00;;;23.20;78.90;;;;;;5015674;28;20223;-72
2022/06/26 04:30:37;;;;;;;8.73;4.88;;;23.30;78.60;;;;;;5025514;28;20317;-72
2022/06/26 04:33:04;;;;;;;7.72;5.95;;;23.30;78.40;;;;;;5032707;28;20229;-73
2022/06/26 04:35:30;;;;;;;6.65;5.00;;;23.40;78.50;;;;;;5021096;28;20210;-73
2022/06/26 04:37:57;;;;;;;6.20;4.45;;;23.40;78.50;;;;;;5019199;28;20299;-73
2022/06/26 04:40:24;;;;;;;4.60;3.95;;;23.50;78.40;;;;;;5022994;28;20202;-73
2022/06/26 04:42:51;;;;;;;5.72;4.57;;;23.50;78.00;;;;;;5023120;28;20207;-73
2022/06/26 04:45:19;;;;;;;4.10;3.70;;;23.60;78.10;;;;;;5028573;28;20217;-72
2022/06/26 04:47:46;;;;;;;7.45;4.20;;;23.60;77.90;;;;;;5021594;28;20563;-73
2022/06/26 04:50:13;;;;;;;6.30;3.88;;;23.60;77.90;;;;;;5028565;28;20218;-72
2022/06/26 04:52:43;;;;;;;4.97;3.72;;;23.60;77.70;;;;;;5018724;28;20230;-73
2022/06/26 04:55:10;;;;;;;5.25;4.75;;;23.70;77.60;;;;;;5014763;28;20294;-72
2022/06/26 04:57:37;;;;;;;5.00;3.70;;;23.70;77.40;;;;;;5020930;28;20207;-73
2022/06/26 05:00:05;;;;;;;5.55;3.88;;;23.80;77.10;;;;;;5020949;28;20207;-72
2022/06/26 05:02:33;;;;;;;4.50;3.95;;;23.80;76.90;;;;;;5017556;28;20202;-73
2022/06/26 05:05:00;;;;;;;5.40;3.47;;;23.90;77.00;;;;;;5025275;28;20210;-72
2022/06/26 05:07:27;;;;;;;5.53;4.22;;;23.90;76.90;;;;;;5027789;28;20620;-72
2022/06/26 05:09:53;;;;;;;3.80;3.50;;;23.90;76.70;;;;;;5017832;28;20218;-72
2022/06/26 05:12:20;;;;;;;4.40;4.00;;;24.00;76.90;;;;;;5027022;28;20586;-72
2022/06/26 05:14:47;;;;;;;4.38;3.97;;;24.00;76.90;;;;;;5014729;28;20701;-72
2022/06/26 05:17:14;;;;;;;5.97;4.00;;;24.00;76.60;;;;;;5022632;28;20231;-72
2022/06/26 05:19:42;;;;;;;10.55;4.90;;;24.10;76.60;;;;;;5020853;28;20203;-72
2022/06/26 05:22:09;;;;;;;5.78;4.32;;;24.10;76.30;;;;;;5031809;28;20221;-72
2022/06/26 05:24:36;;;;;;;5.13;3.60;;;24.20;76.20;;;;;;5033723;28;20210;-73
2022/06/26 05:27:03;;;;;;;5.22;4.43;;;24.30;76.10;;;;;;5023122;28;20284;-73
2022/06/26 05:29:30;;;;;;;5.60;3.92;;;24.30;75.70;;;;;;5020754;28;20712;-73
2022/06/26 05:31:56;;;;;;;3.92;3.63;;;24.30;75.70;;;;;;5016139;28;20215;-73
2022/06/26 05:34:23;;;;;;;4.38;3.45;;;24.30;75.60;;;;;;5026392;28;20571;-73
2022/06/26 05:36:51;;;;;;;4.70;4.13;;;24.30;75.50;;;;;;5016132;28;20223;-73
2022/06/26 05:39:18;;;;;;;4.38;3.95;;;24.40;75.50;;;;;;5018248;28;20207;-72
2022/06/26 05:41:45;;;;;;;3.60;3.30;;;24.40;75.40;;;;;;5014826;28;20203;-72
2022/06/26 05:44:12;;;;;;;5.30;3.63;;;24.40;75.20;;;;;;5026416;28;20206;-72
2022/06/26 05:46:41;;;;;;;4.82;3.20;;;24.50;75.10;;;;;;5030116;28;20222;-73
2022/06/26 05:49:08;;;;;;;6.15;3.70;;;24.50;74.80;;;;;;5033216;28;20675;-73
2022/06/26 05:51:35;;;;;;;5.78;3.20;;;24.60;75.00;;;;;;5031046;28;20210;-73
2022/06/26 05:54:03;;;;;;;4.57;3.67;;;24.60;74.80;;;;;;5012979;28;20212;-72
2022/06/26 05:56:29;;;;;;;5.43;3.17;;;24.60;74.50;;;;;;5025736;28;20215;-72
2022/06/26 05:58:56;;;;;;;4.70;3.03;;;24.60;74.40;;;;;;5025856;28;20589;-72
2022/06/26 06:01:23;;;;;;;4.10;3.13;;;24.70;74.30;;;;;;5021377;28;20586;-72
2022/06/26 06:03:50;;;;;;;8.43;5.05;;;24.80;74.00;;;;;;5020667;28;20406;-73
2022/06/26 06:06:16;;;;;;;6.43;3.55;;;24.90;73.90;;;;;;5019009;28;20715;-72
2022/06/26 06:08:43;;;;;;;7.63;4.55;;;24.90;73.70;;;;;;5012408;28;20231;-72
2022/06/26 06:11:11;;;;;;;5.13;3.03;;;25.00;73.10;;;;;;5017219;28;20591;-73
2022/06/26 06:13:38;;;;;;;3.83;3.20;;;25.00;72.20;;;;;;5012930;28;20254;-73
2022/06/26 06:16:06;;;;;;;6.63;3.40;;;25.10;72.10;;;;;;5018888;28;20238;-73
2022/06/26 06:18:34;;;;;;;3.65;3.10;;;25.10;72.30;;;;;;5027511;28;20225;-72
2022/06/26 06:21:01;;;;;;;3.80;3.50;;;25.10;72.30;;;;;;5019635;28;20301;-72
2022/06/26 06:23:28;;;;;;;3.58;3.28;;;25.10;72.60;;;;;;5015643;28;20203;-71
2022/06/26 06:25:54;;;;;;;3.63;3.15;;;25.20;72.80;;;;;;5016634;28;20211;-73
2022/06/26 06:28:23;;;;;;;6.25;3.28;;;25.20;72.50;;;;;;5028082;28;20588;-72
2022/06/26 06:30:49;;;;;;;6.72;3.10;;;25.30;72.80;;;;;;5013157;28;20208;-71
2022/06/26 06:33:16;;;;;;;4.00;2.83;;;25.30;72.50;;;;;;5013404;28;20215;-72
2022/06/26 06:35:43;;;;;;;5.65;3.35;;;25.30;72.50;;;;;;5011872;28;20199;-71
2022/06/26 06:38:10;;;;;;;3.05;2.83;;;25.40;72.60;;;;;;5019483;28;20210;-72
2022/06/26 06:40:37;;;;;;;3.33;3.03;;;25.50;72.50;;;;;;5011687;28;20639;-71
2022/06/26 06:43:09;;;;;;;5.47;3.20;;;25.60;73.00;;;;;;5013858;28;20538;-72
2022/06/26 06:45:37;;;;;;;3.00;2.70;;;25.60;71.90;;;;;;5015081;28;20207;-71
2022/06/26 06:48:05;;;;;;;3.25;2.92;;;25.60;71.30;;;;;;5012487;28;20231;-71
2022/06/26 06:50:32;;;;;;;4.72;3.00;;;25.70;71.10;;;;;;5011855;28;20207;-72
2022/06/26 06:52:59;;;;;;;3.78;2.42;;;25.80;71.00;;;;;;5017447;28;20222;-72
2022/06/26 06:55:26;;;;;;;4.55;2.67;;;25.80;70.00;;;;;;5011790;28;20214;-71
2022/06/26 06:57:52;;;;;;;3.85;3.13;;;25.90;69.70;;;;;;5019380;28;20203;-72
2022/06/26 07:00:19;;;;;;;3.95;3.08;;;25.90;69.60;;;;;;5012129;28;20217;-71
2022/06/26 07:02:48;;;;;;;4.28;2.13;;;26.00;69.70;;;;;;5011573;28;20226;-71
2022/06/26 07:05:17;;;;;;;4.97;3.13;;;26.10;69.30;;;;;;5018734;28;20206;-72
2022/06/26 07:07:44;;;;;;;4.90;2.65;;;26.20;69.20;;;;;;5018514;28;20324;-73
2022/06/26 07:10:10;;;;;;;3.35;2.58;;;26.30;69.00;;;;;;5013409;28;20660;-72
2022/06/26 07:12:37;;;;;;;2.85;2.47;;;26.30;68.40;;;;;;5010120;28;20203;-72
2022/06/26 07:15:05;;;;;;;3.10;2.88;;;26.50;68.20;;;;;;5011440;28;20208;-73
2022/06/26 07:17:32;;;;;;;5.82;2.40;;;26.60;67.40;;;;;;5016043;28;20238;-72
2022/06/26 07:20:00;;;;;;;5.18;2.72;;;26.70;66.90;;;;;;5010672;28;20211;-72
2022/06/26 07:22:27;;;;;;;2.90;2.60;;;26.70;66.80;;;;;;5011032;28;20257;-72
2022/06/26 07:24:54;;;;;;;3.17;2.47;;;26.80;66.40;;;;;;5013513;28;20757;-71
2022/06/26 07:27:22;;;;;;;3.97;2.28;;;26.90;65.90;;;;;;5028872;28;20226;-73
2022/06/26 07:29:48;;;;;;;3.30;2.65;;;27.00;65.70;;;;;;5017121;28;20266;-75
2022/06/26 07:32:15;;;;;;;5.25;2.88;;;27.10;65.20;;;;;;5013434;28;20234;-73
2022/06/26 07:34:42;;;;;;;4.07;2.38;;;27.10;64.80;;;;;;5015879;28;20211;-71
2022/06/26 07:37:10;;;;;;;3.50;2.60;;;27.20;65.20;;;;;;5012045;28;20227;-74
2022/06/26 07:39:37;;;;;;;3.13;2.40;;;27.30;65.00;;;;;;5011422;28;20211;-73
2022/06/26 07:42:05;;;;;;;2.65;2.45;;;27.40;64.70;;;;;;5021103;28;20214;-73
2022/06/26 07:44:32;;;;;;;2.40;2.20;;;27.50;64.70;;;;;;5019132;28;20289;-75
2022/06/26 07:46:59;;;;;;;2.90;2.70;;;27.70;64.50;;;;;;5020640;28;20679;-72
2022/06/26 07:49:26;;;;;;;4.43;2.78;;;27.70;64.40;;;;;;5012948;28;20214;-72
2022/06/26 07:51:53;;;;;;;5.28;2.50;;;27.90;64.50;;;;;;5014268;28;20212;-72
2022/06/26 07:54:21;;;;;;;3.15;2.85;;;28.00;63.20;;;;;;5019597;28;20203;-71
2022/06/26 07:56:50;;;;;;;4.28;2.60;;;28.00;62.30;;;;;;5015469;28;20208;-71
2022/06/26 07:59:17;;;;;;;2.97;2.72;;;27.90;61.80;;;;;;5014714;28;20290;-72
2022/06/26 08:01:46;;;;;;;3.85;2.65;;;27.90;62.10;;;;;;5013460;28;20200;-72
2022/06/26 08:04:12;;;;;;;3.28;2.08;;;27.90;62.40;;;;;;5015413;28;20691;-75
2022/06/26 08:06:39;;;;;;;4.22;2.40;;;27.90;61.70;;;;;;5021959;28;20212;-70
2022/06/26 08:09:07;;;;;;;2.38;2.17;;;27.90;61.80;;;;;;5024112;28;20280;-69
2022/06/26 08:11:35;;;;;;;2.60;2.40;;;28.00;62.10;;;;;;5024503;28;20265;-71
2022/06/26 08:14:02;;;;;;;3.47;2.10;;;28.10;61.60;;;;;;5016714;28;20238;-73
2022/06/26 08:16:29;;;;;;;3.13;2.03;;;28.10;61.50;;;;;;5017894;28;20245;-73
2022/06/26 08:18:56;;;;;;;2.20;2.00;;;28.20;61.00;;;;;;5023218;28;20195;-72
2022/06/26 08:24:07;;;;;;;2.65;2.17;;;28.40;59.70;;;;;;5022915;28;20568;-73
2022/06/26 08:26:36;;;;;;;4.75;1.95;;;28.40;59.50;;;;;;5022670;28;20298;-75
2022/06/26 08:29:04;;;;;;;2.10;1.90;;;28.40;59.40;;;;;;5021343;28;20273;-77
2022/06/26 08:31:30;;;;;;;5.45;2.47;;;28.50;59.30;;;;;;5016279;28;20297;-76
2022/06/26 08:33:57;;;;;;;2.33;2.13;;;28.50;58.90;;;;;;5024826;28;20593;-74
2022/06/26 08:36:24;;;;;;;4.05;2.13;;;28.60;58.60;;;;;;5022538;28;20242;-73
2022/06/26 08:38:51;;;;;;;3.55;2.05;;;28.50;58.80;;;;;;5018024;28;20328;-74
2022/06/26 08:41:22;;;;;;;2.72;2.05;;;28.60;58.90;;;;;;5016452;28;20202;-76
2022/06/26 08:43:53;;;;;;;3.17;2.05;;;28.60;58.90;;;;;;5017847;28;20566;-76
2022/06/26 08:46:24;;;;;;;3.03;2.58;;;28.70;58.80;;;;;;5016096;28;20195;-74
2022/06/26 08:48:54;;;;;;;5.85;2.20;;;28.80;58.90;;;;;;5014257;28;20211;-75
2022/06/26 08:51:21;;;;;;;2.60;2.40;;;28.90;58.50;;;;;;5016490;28;20204;-75
2022/06/26 08:53:49;;;;;;;2.83;2.05;;;29.00;58.50;;;;;;5015501;28;20211;-74
2022/06/26 08:56:16;;;;;;;3.97;2.20;;;29.00;58.50;;;;;;5013949;28;20211;-75
2022/06/26 08:58:42;;;;;;;3.40;1.95;;;29.20;57.90;;;;;;5019323;28;20210;-75
2022/06/26 09:01:11;;;;;;;3.47;2.35;;;29.20;57.40;;;;;;5024302;28;20597;-76
2022/06/26 09:03:37;;;;;;;4.03;2.10;;;29.20;57.10;;;;;;5021680;28;20215;-75
2022/06/26 09:06:05;;;;;;;2.72;2.10;;;29.30;57.30;;;;;;5021005;28;20207;-72
2022/06/26 09:08:42;;;;;;;3.67;2.40;;;29.40;56.40;;;;;;5015533;28;20230;-76
2022/06/26 09:11:09;;;;;;;2.72;2.33;;;29.50;56.30;;;;;;5016432;28;20676;-75
2022/06/26 09:13:40;;;;;;;2.53;2.17;;;29.50;55.80;;;;;;5019768;28;20323;-75
2022/06/26 09:16:07;;;;;;;4.30;2.25;;;29.60;55.80;;;;;;5016226;28;20249;-75
2022/06/26 09:18:37;;;;;;;1.92;1.75;;;29.70;55.90;;;;;;5015690;28;20203;-75
2022/06/26 09:21:05;;;;;;;2.08;1.88;;;29.70;55.30;;;;;;5020919;28;20221;-74
2022/06/26 09:23:32;;;;;;;4.07;2.17;;;29.70;55.20;;;;;;5012379;28;20217;-75
2022/06/26 09:26:00;;;;;;;3.55;1.80;;;29.70;55.10;;;;;;5014594;28;20630;-74
2022/06/26 09:28:28;;;;;;;2.75;2.17;;;29.70;55.20;;;;;;5014525;28;20231;-75
2022/06/26 09:30:58;;;;;;;3.05;2.30;;;29.70;55.00;;;;;;5019051;28;20228;-76
2022/06/26 09:33:27;;;;;;;3.15;2.00;;;29.70;55.50;;;;;;5014071;28;20211;-75
2022/06/26 09:35:56;;;;;;;4.00;2.22;;;29.90;55.60;;;;;;5023158;28;20217;-74
2022/06/26 09:38:24;;;;;;;3.22;2.10;;;30.10;55.10;;;;;;5019253;28;20203;-76
2022/06/26 09:40:54;;;;;;;2.55;2.20;;;30.20;54.60;;;;;;5018278;28;20218;-75
2022/06/26 09:43:26;;;;;;;4.07;2.75;;;30.30;54.30;;;;;;5026166;28;20213;-77
2022/06/26 09:45:54;;;;;;;2.20;1.98;;;30.50;54.20;;;;;;5013704;28;20641;-75
2022/06/26 09:48:24;;;;;;;3.65;2.05;;;30.70;54.10;;;;;;5018802;28;20254;-74
2022/06/26 09:50:51;;;;;;;3.45;1.90;;;30.80;53.40;;;;;;5013718;28;20668;-75
2022/06/26 09:53:21;;;;;;;2.80;2.30;;;30.70;53.50;;;;;;5014862;28;20207;-74
2022/06/26 09:55:49;;;;;;;4.05;2.10;;;30.60;53.80;;;;;;5022678;28;20215;-75
2022/06/26 09:58:16;;;;;;;3.25;2.38;;;30.60;53.50;;;;;;5028480;28;20198;-75
2022/06/26 10:06:25;;;;;;;2.30;1.90;;;30.70;53.60;;;;;;5023098;28;20274;-75
2022/06/26 10:06:28;;;;;;;4.10;2.50;;;31.00;52.80;;;;;;5012892;28;20206;-75
2022/06/26 10:08:58;;;;;;;2.88;2.00;;;31.10;52.50;;;;;;5022441;28;20214;-75
2022/06/26 10:11:28;;;;;;;2.22;2.00;;;31.10;52.50;;;;;;5031377;28;20222;-76
2022/06/26 10:14:07;;;;;;;2.55;1.98;;;31.00;52.30;;;;;;5019708;28;20210;-75
2022/06/26 10:17:00;;;;;;;2.05;1.83;;;31.00;52.50;;;;;;5022789;28;20293;-75
2022/06/26 10:19:34;;;;;;;3.22;2.20;;;31.00;52.60;;;;;;5014869;28;20207;-76
2022/06/26 10:22:01;;;;;;;2.40;1.77;;;31.10;52.50;;;;;;5016960;28;20203;-75
2022/06/26 10:24:29;;;;;;;2.38;2.17;;;31.20;52.10;;;;;;5021568;28;20294;-75
2022/06/26 10:26:59;;;;;;;2.22;2.03;;;31.30;51.60;;;;;;5014417;28;20335;-74
2022/06/26 10:29:36;;;;;;;2.08;1.77;;;31.30;51.70;;;;;;5022050;28;20233;-75
2022/06/26 10:32:04;;;;;;;2.45;1.80;;;31.20;51.50;;;;;;5022359;28;20207;-74
2022/06/26 10:34:31;;;;;;;2.35;2.10;;;31.10;51.80;;;;;;5011751;28;20222;-75
2022/06/26 10:37:04;;;;;;;3.50;2.20;;;31.00;52.10;;;;;;5011282;28;20203;-75
2022/06/26 10:39:45;;;;;;;2.17;1.98;;;31.10;52.10;;;;;;5021971;28;20210;-75
2022/06/26 10:45:07;;;;;;;3.03;2.20;;;31.30;51.40;;;;;;5024698;28;20329;-77
2022/06/26 10:47:47;;;;;;;1.95;1.63;;;31.40;51.30;;;;;;5015482;28;20325;-77
2022/06/26 10:50:31;;;;;;;2.28;1.75;;;31.40;51.00;;;;;;5013845;28;20269;-77
2022/06/26 10:53:14;;;;;;;2.00;1.70;;;31.40;51.30;;;;;;5019172;28;20694;-77
2022/06/26 10:55:44;;;;;;;1.65;1.52;;;31.50;51.00;;;;;;5014236;28;20210;-77
2022/06/26 10:58:19;;;;;;;1.60;1.50;;;31.70;50.70;;;;;;5023702;28;20206;-76
2022/06/26 11:00:48;;;;;;;1.88;1.77;;;31.80;50.60;;;;;;5013441;28;20211;-77
2022/06/26 11:03:16;;;;;;;1.60;1.50;;;31.90;50.40;;;;;;5020381;28;20659;-77
2022/06/26 11:05:54;;;;;;;2.20;2.00;;;32.00;50.20;;;;;;5013850;28;20211;-76
2022/06/26 11:08:31;;;;;;;8.90;1.98;;;32.00;50.00;;;;;;5016546;28;20236;-76
2022/06/26 11:11:06;;;;;;;4.50;1.80;;;32.00;50.10;;;;;;5030761;28;20663;-74
2022/06/26 11:13:34;;;;;;;2.10;1.90;;;32.00;50.20;;;;;;5017183;28;20210;-76
2022/06/26 11:16:01;;;;;;;3.55;1.98;;;31.90;50.20;;;;;;5021731;28;20246;-76
2022/06/26 11:18:33;;;;;;;2.70;1.92;;;31.80;50.60;;;;;;5020135;28;20689;-75
2022/06/26 11:21:01;;;;;;;1.80;1.70;;;31.90;50.80;;;;;;5021319;28;20199;-75
2022/06/26 11:23:29;;;;;;;2.63;1.90;;;31.80;50.60;;;;;;5030910;28;20207;-75
2022/06/26 11:25:59;;;;;;;2.88;2.25;;;31.80;50.70;;;;;;5015910;28;20212;-75
2022/06/26 11:28:32;;;;;;;2.60;1.77;;;31.90;50.60;;;;;;5014987;28;20250;-75
2022/06/26 11:30:59;;;;;;;4.70;2.13;;;31.90;51.30;;;;;;5027656;28;20213;-75
2022/06/26 11:33:29;;;;;;;2.58;2.03;;;31.90;50.70;;;;;;5024632;28;20214;-75
2022/06/26 11:36:01;;;;;;;2.88;2.30;;;31.90;50.70;;;;;;5019637;28;20215;-75
2022/06/26 11:38:28;;;;;;;4.25;1.85;;;31.90;50.60;;;;;;5016835;28;20211;-74
2022/06/26 11:40:59;;;;;;;3.35;2.10;;;31.90;50.70;;;;;;5030883;28;20633;-74
2022/06/26 11:43:27;;;;;;;3.53;2.40;;;31.90;50.90;;;;;;5017356;28;20207;-77
2022/06/26 11:45:56;;;;;;;2.63;1.80;;;31.90;51.00;;;;;;5017062;28;20634;-76
2022/06/26 11:48:24;;;;;;;2.80;1.85;;;32.00;51.10;;;;;;5017157;28;20195;-75
2022/06/26 11:50:53;;;;;;;1.98;1.80;;;32.20;50.30;;;;;;5021054;28;20560;-75
2022/06/26 11:53:22;;;;;;;2.53;2.10;;;32.30;50.40;;;;;;5018785;28;20211;-74
2022/06/26 11:55:50;;;;;;;2.65;1.70;;;32.30;50.20;;;;;;5010774;28;20203;-78
2022/06/26 11:58:18;;;;;;;5.53;1.80;;;32.40;50.10;;;;;;5021009;28;20203;-75
2022/06/26 12:00:46;;;;;;;2.13;1.92;;;32.50;50.00;;;;;;5020450;28;20208;-74
2022/06/26 12:03:15;;;;;;;2.28;1.70;;;32.60;50.20;;;;;;5016505;28;20214;-75
2022/06/26 12:05:43;;;;;;;2.75;1.83;;;32.60;50.30;;;;;;5018788;28;20289;-71
2022/06/26 12:08:18;;;;;;;3.78;2.00;;;32.70;50.10;;;;;;5015890;28;20313;-71
2022/06/26 12:10:49;;;;;;;3.95;2.05;;;32.70;49.60;;;;;;5018079;28;20647;-71
2022/06/26 12:13:24;;;;;;;1.90;1.80;;;32.70;49.60;;;;;;5016219;28;20668;-70
2022/06/26 12:15:51;;;;;;;2.95;1.90;;;32.70;49.60;;;;;;5018238;28;20209;-71
2022/06/26 12:18:19;;;;;;;2.83;1.95;;;32.80;49.90;;;;;;5014408;28;20226;-69
2022/06/26 12:20:50;;;;;;;2.30;2.00;;;32.80;49.80;;;;;;5014039;28;20838;-70
2022/06/26 12:23:17;;;;;;;1.75;1.65;;;32.80;49.70;;;;;;5015192;28;20199;-70
2022/06/26 12:25:47;;;;;;;2.83;2.20;;;32.90;49.30;;;;;;5018549;28;20210;-70
2022/06/26 12:28:22;;;;;;;2.28;2.00;;;32.80;49.60;;;;;;5024797;28;20211;-71
2022/06/26 12:30:49;;;;;;;2.80;1.90;;;32.90;49.50;;;;;;5022097;28;20203;-71
2022/06/26 12:33:16;;;;;;;3.72;1.98;;;32.90;49.30;;;;;;5023889;28;20688;-70
2022/06/26 12:35:44;;;;;;;2.83;1.83;;;32.90;49.10;;;;;;5018782;28;20211;-71
2022/06/26 12:38:11;;;;;;;1.80;1.70;;;32.90;49.30;;;;;;5019648;28;20211;-70
2022/06/26 12:40:38;;;;;;;2.38;2.03;;;32.80;49.00;;;;;;5015186;28;20207;-71
2022/06/26 12:43:05;;;;;;;2.67;2.20;;;32.80;49.20;;;;;;5017710;28;20203;-71
2022/06/26 12:45:32;;;;;;;1.73;1.63;;;32.70;49.10;;;;;;5021805;28;20218;-73
2022/06/26 12:48:01;;;;;;;2.20;2.00;;;32.60;49.30;;;;;;5018124;28;20215;-72
2022/06/26 12:50:28;;;;;;;2.40;1.90;;;32.60;49.70;;;;;;5017067;28;20234;-71
2022/06/26 12:52:56;;;;;;;2.10;1.90;;;32.70;49.50;;;;;;5019478;28;20218;-72
2022/06/26 12:55:22;;;;;;;2.38;1.77;;;32.70;49.60;;;;;;5016171;28;20554;-70
2022/06/26 12:57:49;;;;;;;4.72;1.80;;;32.70;49.20;;;;;;5022870;28;20317;-71
2022/06/26 13:00:17;;;;;;;3.83;2.00;;;32.70;49.40;;;;;;5013255;28;20202;-71
2022/06/26 13:02:44;;;;;;;4.82;2.38;;;32.70;49.10;;;;;;5015492;28;20214;-72
2022/06/26 13:05:10;;;;;;;3.80;2.08;;;32.60;49.10;;;;;;5018206;28;20211;-70